createdAt,value
2023-01-26T00:00:02.738Z,62.63
2023-01-26T00:02:57.742Z,54.15
2023-01-26T00:05:30.202Z,57.05
2023-01-26T00:08:03.298Z,70.55
2023-01-26T00:10:39.401Z,61.30
2023-01-26T00:13:12.308Z,68.35
2023-01-26T00:15:44.955Z,62.05
2023-01-26T00:18:17.879Z,67.90
2023-01-26T00:20:59.972Z,66.95
2023-01-26T00:23:33.702Z,69.47
2023-01-26T00:26:06.941Z,62.30
2023-01-26T00:28:39.949Z,54.65
2023-01-26T00:31:16.135Z,75.25
2023-01-26T00:33:49.240Z,59.42
2023-01-26T00:36:21.923Z,51.50
2023-01-26T00:38:54.754Z,59.15
2023-01-26T00:41:45.997Z,50.88
2023-01-26T00:44:18.935Z,52.88
2023-01-26T00:46:52.007Z,60.60
2023-01-26T00:49:25.128Z,50.58
2023-01-26T00:51:58.625Z,49.45
2023-01-26T00:54:31.517Z,58.03
2023-01-26T00:57:04.118Z,45.75
2023-01-26T00:59:37.864Z,44.83
2023-01-26T01:02:10.448Z,43.00
2023-01-26T01:04:43.321Z,46.47
2023-01-26T01:07:15.903Z,36.25
2023-01-26T01:09:49.405Z,31.70
2023-01-26T01:12:21.967Z,36.65
2023-01-26T01:14:55.038Z,31.15
2023-01-26T01:17:27.498Z,33.17
2023-01-26T01:20:00.411Z,37.60
2023-01-26T01:22:33.992Z,35.38
2023-01-26T01:25:07.044Z,30.95
2023-01-26T01:27:39.801Z,41.42
2023-01-26T01:30:13.521Z,36.75
2023-01-26T01:32:49.992Z,38.22
2023-01-26T01:35:23.007Z,51.72
2023-01-26T01:37:56.791Z,38.60
2023-01-26T01:40:29.885Z,39.03
2023-01-26T01:43:02.449Z,30.55
2023-01-26T01:45:38.519Z,50.95
2023-01-26T01:48:20.175Z,34.35
2023-01-26T01:50:55.074Z,35.63
2023-01-26T01:53:33.477Z,26.60
2023-01-26T01:56:13.496Z,28.30
2023-01-26T01:58:50.824Z,31.79
2023-01-26T02:01:24.196Z,32.10
2023-01-26T02:03:59.880Z,31.02
2023-01-26T02:06:38.907Z,18.42
2023-01-26T02:09:35.297Z,16.67
2023-01-26T02:12:09.799Z,23.27
2023-01-26T02:14:44.131Z,18.67
2023-01-26T02:17:17.222Z,17.95
2023-01-26T02:19:49.923Z,14.65
2023-01-26T02:22:34.970Z,24.45
2023-01-26T02:25:13.172Z,16.42
2023-01-26T02:27:46.633Z,22.88
2023-01-26T02:30:19.282Z,13.05
2023-01-26T02:32:52.529Z,16.63
2023-01-26T02:35:25.629Z,16.42
2023-01-26T02:38:04.152Z,20.80
2023-01-26T02:40:39.556Z,12.98
2023-01-26T02:43:13.045Z,15.32
2023-01-26T02:45:45.863Z,14.95
2023-01-26T02:48:37.329Z,13.27
2023-01-26T02:51:10.002Z,21.73
2023-01-26T02:53:43.365Z,22.92
2023-01-26T02:56:15.942Z,18.52
2023-01-26T02:58:48.942Z,14.30
2023-01-26T03:01:21.635Z,16.10
2023-01-26T03:03:54.683Z,17.80
2023-01-26T03:06:34.492Z,11.95
2023-01-26T03:09:07.477Z,13.48
2023-01-26T03:11:43.307Z,16.88
2023-01-26T03:14:16.936Z,17.45
2023-01-26T03:16:49.667Z,17.13
2023-01-26T03:19:41.289Z,11.40
2023-01-26T03:22:35.031Z,19.75
2023-01-26T03:25:29.224Z,14.02
2023-01-26T03:28:08.210Z,15.93
2023-01-26T03:30:41.755Z,12.55
2023-01-26T03:33:16.611Z,18.52
2023-01-26T03:35:52.890Z,15.15
2023-01-26T03:38:25.755Z,20.88
2023-01-26T03:41:23.294Z,24.08
2023-01-26T03:44:14.475Z,20.10
2023-01-26T03:47:06.150Z,21.20
2023-01-26T03:50:00.451Z,16.38
2023-01-26T03:52:54.908Z,17.98
2023-01-26T03:55:46.137Z,13.95
2023-01-26T03:58:19.214Z,23.20
2023-01-26T04:00:53.158Z,16.67
2023-01-26T04:03:45.278Z,14.98
2023-01-26T04:06:36.588Z,25.08
2023-01-26T04:09:09.507Z,20.48
2023-01-26T04:11:42.221Z,18.75
2023-01-26T04:14:38.234Z,21.92
2023-01-26T04:17:42.499Z,20.65
2023-01-26T04:20:35.150Z,17.20
2023-01-26T04:23:07.748Z,22.60
2023-01-26T04:25:41.151Z,19.63
2023-01-26T04:28:14.651Z,20.40
2023-01-26T04:30:48.173Z,14.40
2023-01-26T04:33:20.822Z,15.60
2023-01-26T04:35:53.886Z,18.95
2023-01-26T04:38:28.058Z,15.60
2023-01-26T04:41:05.518Z,17.98
2023-01-26T04:43:44.909Z,16.02
2023-01-26T04:46:18.047Z,22.15
2023-01-26T04:48:50.683Z,27.05
2023-01-26T04:51:23.724Z,24.48
2023-01-26T04:53:56.749Z,22.48
2023-01-26T04:56:31.804Z,21.20
2023-01-26T04:59:06.595Z,23.48
2023-01-26T05:01:42.116Z,18.70
2023-01-26T05:04:14.774Z,23.38
2023-01-26T05:06:51.337Z,17.83
2023-01-26T05:09:24.002Z,22.77
2023-01-26T05:12:31.896Z,17.33
2023-01-26T05:15:23.338Z,21.25
2023-01-26T05:18:17.301Z,20.42
2023-01-26T05:23:47.065Z,18.77
2023-01-26T05:27:08.560Z,22.92
2023-01-26T05:29:51.747Z,27.88
2023-01-26T05:32:24.907Z,25.73
2023-01-26T05:34:58.390Z,26.83
2023-01-26T05:37:31.102Z,21.85
2023-01-26T05:40:04.885Z,23.80
2023-01-26T05:42:37.719Z,20.50
2023-01-26T05:45:20.120Z,34.13
2023-01-26T05:47:53.212Z,23.98
2023-01-26T05:50:26.183Z,25.58
2023-01-26T05:53:20.068Z,19.95
2023-01-26T05:55:53.937Z,14.10
2023-01-26T05:58:29.446Z,23.00
2023-01-26T06:01:05.784Z,15.52
2023-01-26T06:03:47.191Z,17.50
2023-01-26T06:06:20.163Z,12.02
2023-01-26T06:08:58.017Z,17.30
2023-01-26T06:11:36.812Z,12.10
2023-01-26T06:14:32.325Z,14.15
2023-01-26T06:17:05.368Z,16.95
2023-01-26T06:19:38.171Z,14.90
2023-01-26T06:22:12.844Z,16.45
2023-01-26T06:24:49.432Z,11.80
2023-01-26T06:27:26.173Z,17.65
2023-01-26T06:29:59.261Z,15.98
2023-01-26T06:32:33.183Z,17.40
2023-01-26T06:35:07.149Z,14.25
2023-01-26T06:37:50.690Z,18.63
2023-01-26T06:40:23.583Z,13.73
2023-01-26T06:42:56.903Z,14.02
2023-01-26T06:45:29.519Z,15.50
2023-01-26T06:48:02.444Z,18.17
2023-01-26T06:50:36.049Z,14.85
2023-01-26T06:53:41.340Z,25.27
2023-01-26T06:56:31.864Z,23.92
2023-01-26T06:59:23.191Z,23.20
2023-01-26T07:02:24.919Z,19.00
2023-01-26T07:04:58.041Z,15.10
2023-01-26T07:07:30.578Z,18.33
2023-01-26T07:10:07.054Z,13.45
2023-01-26T07:12:41.144Z,12.60
2023-01-26T07:15:14.321Z,16.83
2023-01-26T07:17:47.137Z,16.02
2023-01-26T07:20:20.665Z,13.60
2023-01-26T07:22:53.465Z,11.32
2023-01-26T07:25:26.377Z,10.52
2023-01-26T07:27:59.527Z,11.68
2023-01-26T07:30:32.600Z,14.05
2023-01-26T07:33:05.142Z,11.15
2023-01-26T07:35:38.050Z,21.90
2023-01-26T07:38:10.952Z,23.90
2023-01-26T07:40:50.515Z,17.05
2023-01-26T07:43:23.268Z,21.15
2023-01-26T07:45:58.783Z,23.33
2023-01-26T07:48:31.314Z,20.10
2023-01-26T07:51:04.780Z,18.10
2023-01-26T07:53:40.581Z,21.73
2023-01-26T07:56:14.720Z,15.35
2023-01-26T07:58:51.381Z,15.68
2023-01-26T08:01:24.769Z,15.27
2023-01-26T08:03:57.393Z,20.10
2023-01-26T08:06:30.285Z,13.68
2023-01-26T08:09:02.841Z,14.23
2023-01-26T08:11:35.748Z,24.75
2023-01-26T08:14:08.409Z,15.38
2023-01-26T08:16:41.377Z,18.10
2023-01-26T08:19:14.078Z,12.38
2023-01-26T08:21:47.098Z,18.35
2023-01-26T08:24:19.563Z,24.13
2023-01-26T08:26:52.624Z,20.20
2023-01-26T08:29:25.227Z,20.00
2023-01-26T08:31:58.159Z,21.23
2023-01-26T08:34:31.327Z,14.07
2023-01-26T08:37:04.247Z,14.30
2023-01-26T08:39:36.917Z,19.17
2023-01-26T08:42:09.728Z,8.23
2023-01-26T08:44:42.205Z,7.63
2023-01-26T08:47:15.269Z,15.02
2023-01-26T08:49:47.901Z,15.15
2023-01-26T08:52:22.047Z,9.73
2023-01-26T08:54:54.632Z,12.32
2023-01-26T08:57:27.692Z,16.23
2023-01-26T09:00:00.237Z,12.50
2023-01-26T09:02:33.281Z,13.60
2023-01-26T09:05:06.282Z,16.90
2023-01-26T09:07:39.307Z,23.20
2023-01-26T09:10:12.265Z,23.08
2023-01-26T09:12:45.500Z,15.55
2023-01-26T09:15:18.178Z,12.38
2023-01-26T09:17:51.469Z,12.88
2023-01-26T09:20:24.285Z,14.20
2023-01-26T09:22:57.946Z,18.30
2023-01-26T09:25:30.722Z,11.95
2023-01-26T09:28:05.594Z,13.10
2023-01-26T09:30:38.420Z,12.52
2023-01-26T09:33:11.410Z,13.30
2023-01-26T09:35:44.046Z,15.02
2023-01-26T09:38:17.150Z,11.82
2023-01-26T09:41:19.395Z,8.43
2023-01-26T09:43:54.353Z,12.63
2023-01-26T09:46:26.873Z,8.10
2023-01-26T09:49:02.644Z,15.93
2023-01-26T09:51:37.033Z,14.48
2023-01-26T09:54:29.065Z,15.45
2023-01-26T09:57:03.024Z,8.68
2023-01-26T09:59:42.931Z,7.85
2023-01-26T10:02:34.711Z,18.08
2023-01-26T10:07:45.550Z,15.32
2023-01-26T10:10:21.896Z,10.10
2023-01-26T10:12:55.713Z,10.30
2023-01-26T10:15:33.671Z,13.55
2023-01-26T10:18:26.407Z,12.88
2023-01-26T10:21:00.874Z,10.70
2023-01-26T10:23:34.679Z,10.95
2023-01-26T10:26:13.369Z,15.05
2023-01-26T10:28:47.034Z,12.82
2023-01-26T10:31:25.107Z,14.23
2023-01-26T10:34:13.358Z,10.98
2023-01-26T10:36:47.103Z,13.57
2023-01-26T10:39:19.829Z,14.98
2023-01-26T10:41:57.041Z,16.60
2023-01-26T10:44:36.996Z,19.13
2023-01-26T10:47:17.016Z,20.85
2023-01-26T10:49:49.725Z,9.85
2023-01-26T10:52:25.204Z,13.82
2023-01-26T10:55:17.567Z,12.25
2023-01-26T10:57:50.644Z,20.00
2023-01-26T11:00:25.251Z,13.82
2023-01-26T11:03:01.230Z,10.43
2023-01-26T11:05:34.249Z,15.90
2023-01-26T11:08:27.216Z,19.48
2023-01-26T11:10:59.803Z,15.77
2023-01-26T11:13:32.758Z,15.63
2023-01-26T11:16:05.459Z,12.10
2023-01-26T11:18:43.104Z,5.57
2023-01-26T11:21:22.667Z,7.30
2023-01-26T11:24:05.440Z,22.38
2023-01-26T11:26:56.548Z,14.52
2023-01-26T11:29:47.867Z,16.08
2023-01-26T11:32:26.357Z,34.17
2023-01-26T11:35:17.919Z,15.55
2023-01-26T11:38:09.942Z,11.90
2023-01-26T11:40:55.535Z,16.08
2023-01-26T11:43:34.041Z,20.05
2023-01-26T11:46:25.816Z,11.07
2023-01-26T11:49:07.624Z,12.45
2023-01-26T11:51:50.029Z,10.25
2023-01-26T11:54:41.095Z,13.13
2023-01-26T11:57:16.790Z,17.23
2023-01-26T11:59:49.284Z,19.70
2023-01-26T12:02:30.023Z,22.15
2023-01-26T12:05:06.273Z,22.42
2023-01-26T12:07:57.345Z,19.63
2023-01-26T12:10:48.730Z,18.73
2023-01-26T12:13:36.615Z,12.23
2023-01-26T12:16:21.740Z,12.52
2023-01-26T12:19:10.114Z,12.15
2023-01-26T12:21:44.832Z,9.38
2023-01-26T12:24:46.782Z,10.88
2023-01-26T12:27:18.751Z,16.65
2023-01-26T12:30:03.011Z,17.88
2023-01-26T12:32:35.612Z,17.77
2023-01-26T12:35:11.731Z,17.17
2023-01-26T12:38:12.154Z,20.23
2023-01-26T12:41:03.489Z,17.10
2023-01-26T12:43:36.004Z,27.15
2023-01-26T12:46:09.610Z,14.25
2023-01-26T12:48:44.924Z,17.30
2023-01-26T12:51:25.984Z,13.05
2023-01-26T12:54:00.399Z,11.77
2023-01-26T12:56:36.642Z,27.63
2023-01-26T12:59:38.382Z,10.70
2023-01-26T13:02:18.114Z,16.35
2023-01-26T13:04:51.133Z,12.70
2023-01-26T13:07:40.412Z,15.10
2023-01-26T13:10:18.008Z,17.33
2023-01-26T13:12:50.931Z,10.82
2023-01-26T13:15:25.127Z,10.82
2023-01-26T13:18:02.104Z,22.83
2023-01-26T13:20:40.921Z,15.40
2023-01-26T13:23:29.194Z,21.42
2023-01-26T13:26:20.476Z,16.02
2023-01-26T13:29:13.355Z,12.10
2023-01-26T13:31:45.839Z,11.73
2023-01-26T13:34:20.504Z,13.85
2023-01-26T13:36:53.573Z,17.23
2023-01-26T13:39:35.004Z,16.05
2023-01-26T13:42:23.042Z,18.40
2023-01-26T13:45:08.743Z,22.55
2023-01-26T13:47:43.101Z,12.77
2023-01-26T13:50:23.874Z,21.98
2023-01-26T13:52:56.498Z,12.52
2023-01-26T13:55:33.455Z,11.43
2023-01-26T13:58:16.494Z,11.75
2023-01-26T14:00:59.645Z,13.40
2023-01-26T14:03:32.182Z,18.48
2023-01-26T14:06:09.414Z,17.05
2023-01-26T14:08:45.541Z,15.30
2023-01-26T14:11:20.412Z,11.50
2023-01-26T14:13:56.409Z,17.95
2023-01-26T14:16:31.064Z,17.80
2023-01-26T14:19:11.222Z,21.95
2023-01-26T14:21:46.949Z,18.75
2023-01-26T14:24:25.134Z,16.05
2023-01-26T14:26:58.146Z,21.38
2023-01-26T14:29:31.121Z,19.77
2023-01-26T14:32:04.730Z,18.33
2023-01-26T14:34:37.309Z,21.80
2023-01-26T14:37:14.457Z,21.05
2023-01-26T14:39:48.373Z,18.05
2023-01-26T14:42:22.040Z,13.82
2023-01-26T14:44:54.762Z,17.83
2023-01-26T14:47:31.894Z,16.85
2023-01-26T14:50:12.621Z,28.75
2023-01-26T14:52:46.724Z,36.13
2023-01-26T14:55:22.411Z,21.90
2023-01-26T14:57:55.709Z,22.23
2023-01-26T15:00:33.523Z,23.77
2023-01-26T15:03:11.914Z,16.92
2023-01-26T15:05:45.058Z,13.20
2023-01-26T15:08:22.420Z,25.88
2023-01-26T15:11:16.599Z,28.65
2023-01-26T15:13:53.834Z,29.65
2023-01-26T15:16:26.682Z,26.73
2023-01-26T15:19:01.032Z,22.45
2023-01-26T15:21:39.979Z,26.15
2023-01-26T15:24:14.230Z,25.70
2023-01-26T15:26:46.880Z,24.27
2023-01-26T15:29:24.369Z,35.40
2023-01-26T15:31:57.900Z,32.67
2023-01-26T15:34:32.917Z,39.53
2023-01-26T15:37:25.685Z,33.15
2023-01-26T15:39:58.671Z,25.20
2023-01-26T15:42:32.023Z,36.42
2023-01-26T15:45:13.176Z,40.40
2023-01-26T15:47:45.846Z,50.03
2023-01-26T15:50:27.906Z,34.10
2023-01-26T15:53:01.152Z,41.33
2023-01-26T15:55:34.209Z,42.65
2023-01-26T15:58:06.798Z,55.20
2023-01-26T16:00:39.877Z,27.33
2023-01-26T16:03:14.225Z,39.13
2023-01-26T16:05:51.783Z,46.90
2023-01-26T16:08:24.606Z,32.05
2023-01-26T16:10:57.926Z,37.63
2023-01-26T16:13:33.865Z,44.92
2023-01-26T16:16:09.525Z,54.97
2023-01-26T16:18:42.591Z,54.92
2023-01-26T16:21:19.621Z,46.85
2023-01-26T16:23:52.380Z,35.72
2023-01-26T16:26:25.888Z,34.10
2023-01-26T16:28:58.474Z,29.65
2023-01-26T16:31:32.952Z,32.25
2023-01-26T16:34:06.183Z,36.70
2023-01-26T16:36:39.036Z,30.40
2023-01-26T16:39:11.625Z,37.10
2023-01-26T16:41:44.560Z,40.90
2023-01-26T16:44:17.943Z,52.42
2023-01-26T16:46:50.751Z,101.90
2023-01-26T16:49:23.442Z,70.57
2023-01-26T16:51:56.419Z,64.18
2023-01-26T16:54:29.000Z,48.78
2023-01-26T16:57:01.942Z,49.55
2023-01-26T16:59:34.471Z,51.03
2023-01-26T17:02:19.341Z,80.38
2023-01-26T17:04:52.593Z,107.03
2023-01-26T17:07:25.552Z,140.38
2023-01-26T17:09:58.186Z,115.35
2023-01-26T17:12:31.065Z,65.07
2023-01-26T17:15:04.237Z,60.65
2023-01-26T17:17:37.169Z,66.65
2023-01-26T17:20:18.895Z,44.05
2023-01-26T17:22:52.702Z,39.10
2023-01-26T17:25:25.601Z,42.13
2023-01-26T17:27:58.532Z,70.68
2023-01-26T17:30:31.249Z,78.25
2023-01-26T17:33:04.246Z,37.25
2023-01-26T17:35:36.835Z,53.63
2023-01-26T17:38:09.765Z,116.10
2023-01-26T17:40:42.465Z,350.55
2023-01-26T17:43:15.380Z,250.40
2023-01-26T17:45:47.873Z,137.93
2023-01-26T17:48:20.778Z,172.30
2023-01-26T17:50:54.989Z,60.47
2023-01-26T17:53:29.049Z,54.17
2023-01-26T17:56:01.650Z,344.33
2023-01-26T17:58:34.697Z,156.15
2023-01-26T18:01:08.373Z,65.88
2023-01-26T18:03:42.480Z,44.03
2023-01-26T18:06:15.156Z,54.83
2023-01-26T18:08:49.244Z,47.60
2023-01-26T18:11:22.040Z,47.05
2023-01-26T18:13:55.726Z,73.68
2023-01-26T18:16:28.213Z,48.83
2023-01-26T18:19:04.795Z,72.55
2023-01-26T18:21:37.411Z,75.63
2023-01-26T18:24:10.545Z,47.80
2023-01-26T18:26:43.133Z,45.83
2023-01-26T18:29:17.026Z,38.00
2023-01-26T18:31:49.703Z,44.55
2023-01-26T18:34:22.706Z,43.20
2023-01-26T18:36:55.800Z,45.83
2023-01-26T18:39:29.307Z,52.17
2023-01-26T18:42:01.776Z,52.00
2023-01-26T18:44:34.858Z,48.17
2023-01-26T18:47:07.343Z,39.28
2023-01-26T18:49:40.167Z,67.05
2023-01-26T18:52:12.799Z,79.57
2023-01-26T18:54:45.717Z,66.72
2023-01-26T18:57:18.569Z,54.40
2023-01-26T18:59:51.555Z,50.60
2023-01-26T19:02:25.860Z,58.08
2023-01-26T19:04:58.965Z,62.30
2023-01-26T19:07:31.522Z,70.57
2023-01-26T19:10:06.365Z,49.75
2023-01-26T19:12:38.837Z,51.40
2023-01-26T19:15:12.021Z,48.50
2023-01-26T19:17:45.241Z,56.72
2023-01-26T19:20:18.538Z,42.08
2023-01-26T19:22:54.420Z,41.28
2023-01-26T19:25:27.236Z,44.20
2023-01-26T19:27:59.753Z,48.53
2023-01-26T19:30:33.923Z,55.30
2023-01-26T19:33:24.240Z,44.05
2023-01-26T19:35:57.197Z,48.38
2023-01-26T19:38:30.206Z,58.50
2023-01-26T19:41:03.280Z,41.70
2023-01-26T19:43:36.010Z,64.28
2023-01-26T19:46:11.972Z,52.00
2023-01-26T19:48:44.865Z,51.28
2023-01-26T19:51:19.406Z,49.20
2023-01-26T19:54:00.688Z,178.95
2023-01-26T19:56:44.705Z,91.32
2023-01-26T19:59:17.688Z,89.05
2023-01-26T20:01:50.576Z,66.47
2023-01-26T20:04:23.119Z,63.78
2023-01-26T20:06:56.009Z,63.22
2023-01-26T20:09:32.376Z,85.78
2023-01-26T20:12:07.412Z,125.50
2023-01-26T20:14:39.932Z,65.03
2023-01-26T20:17:12.887Z,45.28
2023-01-26T20:19:45.496Z,42.05
2023-01-26T20:22:18.346Z,38.83
2023-01-26T20:24:50.915Z,42.95
2023-01-26T20:27:23.842Z,44.65
2023-01-26T20:29:56.613Z,44.20
2023-01-26T20:32:29.680Z,56.92
2023-01-26T20:35:02.694Z,69.53
2023-01-26T20:37:36.387Z,61.50
2023-01-26T20:40:09.585Z,86.75
2023-01-26T20:42:42.756Z,68.70
2023-01-26T20:45:15.306Z,66.30
2023-01-26T20:47:48.408Z,67.80
2023-01-26T20:50:21.143Z,70.65
2023-01-26T20:52:54.052Z,67.78
2023-01-26T20:55:26.517Z,72.47
2023-01-26T20:57:59.424Z,94.18
2023-01-26T21:00:33.317Z,129.93
2023-01-26T21:03:06.164Z,71.88
2023-01-26T21:05:38.650Z,85.30
2023-01-26T21:08:11.714Z,70.13
2023-01-26T21:10:45.852Z,68.45
2023-01-26T21:13:18.754Z,82.22
2023-01-26T21:15:51.934Z,78.00
2023-01-26T21:18:24.946Z,52.05
2023-01-26T21:20:58.541Z,59.42
2023-01-26T21:23:32.524Z,66.40
2023-01-26T21:26:06.648Z,64.78
2023-01-26T21:28:39.824Z,65.25
2023-01-26T21:31:14.210Z,53.35
2023-01-26T21:33:47.705Z,63.20
2023-01-26T21:36:21.737Z,76.45
2023-01-26T21:38:56.173Z,67.85
2023-01-26T21:41:48.939Z,67.53
2023-01-26T21:44:29.009Z,63.40
2023-01-26T21:47:04.033Z,75.65
2023-01-26T21:49:37.027Z,58.88
2023-01-26T21:52:28.118Z,67.93
2023-01-26T21:55:01.000Z,56.60
2023-01-26T21:57:52.179Z,59.42
2023-01-26T22:00:25.156Z,57.35
2023-01-26T22:02:59.853Z,48.92
2023-01-26T22:05:32.752Z,52.67
2023-01-26T22:08:06.982Z,50.88
2023-01-26T22:10:41.238Z,48.72
2023-01-26T22:13:13.704Z,55.67
2023-01-26T22:15:46.608Z,59.55
2023-01-26T22:18:19.175Z,54.25
2023-01-26T22:20:52.326Z,44.03
2023-01-26T22:23:24.903Z,48.38
2023-01-26T22:25:58.092Z,62.40
2023-01-26T22:28:30.944Z,46.42
2023-01-26T22:31:06.994Z,57.60
2023-01-26T22:33:40.387Z,56.95
2023-01-26T22:36:13.606Z,64.85
2023-01-26T22:38:46.948Z,63.00
2023-01-26T22:41:22.092Z,81.35
2023-01-26T22:43:55.516Z,68.70
2023-01-26T22:46:29.594Z,50.00
2023-01-26T22:49:02.927Z,65.13
2023-01-26T22:51:43.324Z,52.42
2023-01-26T22:54:16.259Z,66.63
2023-01-26T22:56:49.116Z,41.10
2023-01-26T22:59:22.128Z,46.03
2023-01-26T23:01:57.397Z,51.88
2023-01-26T23:04:30.087Z,54.85
2023-01-26T23:07:03.124Z,46.50
2023-01-26T23:09:35.849Z,40.53
2023-01-26T23:12:08.930Z,38.30
2023-01-26T23:14:41.459Z,50.58
2023-01-26T23:17:14.307Z,46.35
2023-01-26T23:19:49.557Z,60.72
2023-01-26T23:22:23.761Z,57.03
2023-01-26T23:25:14.602Z,42.05
2023-01-26T23:27:47.507Z,40.22
2023-01-26T23:30:20.150Z,50.47
2023-01-26T23:32:53.025Z,49.45
2023-01-26T23:35:26.707Z,50.03
2023-01-26T23:38:00.836Z,48.85
2023-01-26T23:40:34.244Z,43.85
2023-01-26T23:43:16.520Z,48.60
2023-01-26T23:45:50.651Z,48.67
2023-01-26T23:48:23.764Z,47.53
2023-01-26T23:50:57.724Z,37.55
2023-01-26T23:53:31.080Z,41.22
2023-01-26T23:56:06.134Z,41.67
2023-01-26T23:58:39.127Z,45.28
